createdAt,value
2018-07-10T00:04:36.436Z,3.30
2018-07-10T00:07:18.124Z,3.00
2018-07-10T00:16:23.751Z,2.57
2018-07-10T00:18:59.139Z,4.10
2018-07-10T00:21:34.845Z,5.30
2018-07-10T00:24:05.995Z,2.30
2018-07-10T00:26:34.811Z,2.63
2018-07-10T00:29:03.767Z,3.20
2018-07-10T00:31:32.755Z,2.47
2018-07-10T00:34:05.207Z,2.20
2018-07-10T00:36:34.127Z,2.30
2018-07-10T00:39:09.272Z,2.70
2018-07-10T00:41:40.315Z,4.80
2018-07-10T00:44:14.259Z,3.30
2018-07-10T00:46:51.315Z,2.60
2018-07-10T00:49:20.188Z,11.10
2018-07-10T00:51:49.023Z,3.67
2018-07-10T00:54:18.843Z,8.93
2018-07-10T00:57:01.259Z,2.77
2018-07-10T00:59:35.243Z,3.57
2018-07-10T01:02:04.129Z,3.27
2018-07-10T01:04:33.023Z,4.43
2018-07-10T01:07:01.931Z,2.90
2018-07-10T01:09:34.167Z,2.30
2018-07-10T01:12:06.680Z,2.90
2018-07-10T01:14:43.363Z,3.13
2018-07-10T01:17:13.247Z,2.70
2018-07-10T01:19:42.131Z,2.90
2018-07-10T01:22:12.911Z,4.13
2018-07-10T01:24:43.747Z,2.57
2018-07-10T01:27:16.099Z,2.43
2018-07-10T01:29:48.183Z,4.23
2018-07-10T01:32:20.863Z,3.00
2018-07-10T01:34:49.619Z,4.53
2018-07-10T01:37:18.519Z,3.07
2018-07-10T01:39:47.433Z,2.70
2018-07-10T01:42:22.025Z,5.20
2018-07-10T01:44:56.867Z,4.90
2018-07-10T01:47:25.763Z,2.60
2018-07-10T01:49:55.659Z,3.13
2018-07-10T01:52:30.194Z,4.10
2018-07-10T01:54:59.056Z,3.03
2018-07-10T01:57:28.307Z,2.87
2018-07-10T01:59:58.195Z,3.73
2018-07-10T02:02:27.103Z,3.23
2018-07-10T02:04:59.107Z,3.37
2018-07-10T02:07:29.755Z,3.40
2018-07-10T02:10:03.391Z,2.87
2018-07-10T02:12:37.279Z,3.50
2018-07-10T02:15:22.199Z,4.50
2018-07-10T02:17:51.104Z,7.37
2018-07-10T02:20:28.283Z,3.10
2018-07-10T02:22:59.718Z,3.63
2018-07-10T02:25:28.595Z,3.73
2018-07-10T02:27:59.479Z,3.20
2018-07-10T02:30:32.195Z,5.33
2018-07-10T02:33:06.813Z,4.10
2018-07-10T02:35:36.580Z,3.17
2018-07-10T02:38:10.382Z,3.23
2018-07-10T02:40:40.223Z,4.07
2018-07-10T02:43:09.991Z,4.27
2018-07-10T02:45:38.847Z,3.30
2018-07-10T02:48:09.647Z,3.30
2018-07-10T02:50:43.234Z,4.30
2018-07-10T02:53:15.347Z,6.07
2018-07-10T02:55:46.415Z,3.40
2018-07-10T02:58:16.322Z,7.43
2018-07-10T03:00:51.091Z,6.87
2018-07-10T03:03:19.952Z,4.00
2018-07-10T03:05:48.760Z,4.60
2018-07-10T03:08:20.727Z,3.57
2018-07-10T03:10:51.619Z,4.17
2018-07-10T03:13:23.809Z,4.70
2018-07-10T03:16:02.703Z,4.13
2018-07-10T03:18:32.930Z,4.07
2018-07-10T03:21:02.755Z,4.80
2018-07-10T03:23:32.647Z,3.87
2018-07-10T03:26:02.548Z,3.73
2018-07-10T03:28:33.367Z,5.30
2018-07-10T03:31:03.251Z,4.70
2018-07-10T03:33:33.146Z,5.53
2018-07-10T03:36:01.991Z,3.90
2018-07-10T03:38:30.843Z,8.27
2018-07-10T03:40:59.694Z,7.00
2018-07-10T03:43:30.490Z,5.67
2018-07-10T03:46:02.939Z,5.93
2018-07-10T03:48:32.802Z,7.50
2018-07-10T03:51:14.007Z,5.33
2018-07-10T03:53:43.911Z,4.07
2018-07-10T03:56:12.759Z,3.83
2018-07-10T03:58:42.603Z,4.23
2018-07-10T04:01:28.481Z,5.53
2018-07-10T04:04:03.811Z,4.70
2018-07-10T04:06:32.699Z,4.23
2018-07-10T04:15:07.778Z,4.27
2018-07-10T04:17:59.179Z,4.70
2018-07-10T04:20:42.643Z,3.77
2018-07-10T04:23:13.412Z,4.20
2018-07-10T04:28:47.325Z,5.10
2018-07-10T04:31:28.782Z,4.33
2018-07-10T04:33:59.551Z,6.13
2018-07-10T04:36:42.234Z,3.93
2018-07-10T04:39:28.210Z,4.10
2018-07-10T04:42:41.044Z,4.17
2018-07-10T04:45:13.358Z,7.90
2018-07-10T04:47:46.526Z,6.47
2018-07-10T04:50:31.394Z,7.63
2018-07-10T04:53:07.467Z,5.13
2018-07-10T04:55:42.063Z,4.60
2018-07-10T04:58:19.620Z,10.03
2018-07-10T05:00:57.446Z,4.53
2018-07-10T05:03:33.886Z,5.60
2018-07-10T05:06:22.443Z,5.17
2018-07-10T05:08:56.053Z,5.20
2018-07-10T05:11:29.226Z,4.90
2018-07-10T05:14:02.810Z,6.57
2018-07-10T05:16:31.579Z,4.40
2018-07-10T05:19:10.347Z,4.63
2018-07-10T05:21:57.770Z,4.47
2018-07-10T05:24:41.187Z,4.93
2018-07-10T05:27:10.977Z,6.97
2018-07-10T05:29:56.603Z,4.87
2018-07-10T05:32:32.831Z,4.80
2018-07-10T05:35:03.679Z,7.17
2018-07-10T05:37:36.183Z,4.93
2018-07-10T05:43:16.558Z,4.93
2018-07-10T05:45:48.759Z,7.93
2018-07-10T05:48:24.156Z,5.03
2018-07-10T05:53:49.264Z,5.13
2018-07-10T05:56:19.079Z,5.10
2018-07-10T05:58:48.883Z,5.10
2018-07-10T06:01:17.539Z,6.87
2018-07-10T06:03:52.079Z,5.90
2018-07-10T06:06:28.103Z,6.97
2018-07-10T06:09:10.191Z,5.20
2018-07-10T06:11:38.983Z,4.80
2018-07-10T06:14:08.848Z,4.83
2018-07-10T06:16:38.663Z,4.50
2018-07-10T06:19:19.767Z,4.90
2018-07-10T06:21:52.590Z,5.07
2018-07-10T06:24:29.323Z,4.17
2018-07-10T06:27:01.299Z,6.03
2018-07-10T06:29:41.115Z,7.87
2018-07-10T06:32:20.587Z,4.50
2018-07-10T06:34:54.417Z,4.93
2018-07-10T06:37:30.291Z,4.57
2018-07-10T06:40:05.603Z,3.97
2018-07-10T06:42:46.718Z,4.37
2018-07-10T06:45:15.566Z,5.97
2018-07-10T06:48:03.858Z,4.20
2018-07-10T06:50:35.524Z,6.33
2018-07-10T06:53:26.749Z,4.17
2018-07-10T06:55:58.724Z,3.93
2018-07-10T06:58:32.938Z,4.73
2018-07-10T07:01:07.307Z,4.37
2018-07-10T07:03:40.803Z,5.40
2018-07-10T07:06:13.098Z,4.40
2018-07-10T07:08:42.943Z,6.57
2018-07-10T07:11:18.222Z,9.37
2018-07-10T07:13:49.098Z,4.40
2018-07-10T07:16:30.639Z,4.10
2018-07-10T07:19:00.394Z,8.23
2018-07-10T07:21:32.279Z,4.53
2018-07-10T07:24:02.019Z,5.00
2018-07-10T07:26:30.750Z,8.53
2018-07-10T07:34:48.287Z,8.40
2018-07-10T07:37:19.046Z,4.50
2018-07-10T07:39:47.818Z,4.90
2018-07-10T07:42:17.658Z,4.57
2018-07-10T07:44:47.050Z,7.90
2018-07-10T07:47:16.182Z,6.07
2018-07-10T07:49:50.813Z,4.40
2018-07-10T07:52:31.144Z,6.03
2018-07-10T07:55:02.131Z,4.50
2018-07-10T07:57:32.402Z,5.40
2018-07-10T08:00:06.339Z,4.73
2018-07-10T08:02:36.238Z,4.23
2018-07-10T08:05:08.128Z,5.13
2018-07-10T08:07:41.002Z,6.73
2018-07-10T08:10:09.770Z,5.17
2018-07-10T08:12:41.662Z,6.20
2018-07-10T08:15:13.750Z,7.63
2018-07-10T08:17:42.606Z,5.50
2018-07-10T08:20:18.458Z,4.90
2018-07-10T08:22:56.554Z,2.93
2018-07-10T08:25:26.290Z,3.90
2018-07-10T08:27:58.530Z,3.33
2018-07-10T08:30:32.354Z,7.77
2018-07-10T08:33:04.526Z,3.30
2018-07-10T08:35:34.302Z,2.93
2018-07-10T08:41:17.198Z,3.20
2018-07-10T08:46:40.126Z,3.43
2018-07-10T08:49:11.723Z,4.47
2018-07-10T08:51:40.714Z,4.07
2018-07-10T08:54:09.566Z,3.83
2018-07-10T08:56:38.342Z,3.57
2018-07-10T08:59:07.090Z,5.70
2018-07-10T09:01:35.818Z,4.23
2018-07-10T09:04:07.954Z,4.70
2018-07-10T09:06:38.726Z,4.97
2018-07-10T09:09:07.462Z,4.53
2018-07-10T09:11:38.241Z,4.80
2018-07-10T09:14:17.911Z,4.20
2018-07-10T09:16:46.846Z,4.23
2018-07-10T09:19:26.821Z,5.07
2018-07-10T09:22:15.530Z,4.77
2018-07-10T09:24:48.186Z,6.63
2018-07-10T09:27:19.990Z,5.43
2018-07-10T09:30:06.370Z,5.83
2018-07-10T09:32:51.530Z,5.90
2018-07-10T09:35:26.766Z,6.73
2018-07-10T09:41:02.383Z,5.97
2018-07-10T09:43:31.278Z,4.77
2018-07-10T09:46:04.054Z,4.20
2018-07-10T09:48:32.882Z,4.63
2018-07-10T09:51:03.607Z,6.67
2018-07-10T09:53:49.234Z,5.80
2018-07-10T09:56:29.842Z,6.93
2018-07-10T09:59:04.579Z,7.23
2018-07-10T10:01:41.602Z,8.07
2018-07-10T10:04:10.450Z,7.50
2018-07-10T10:06:42.838Z,8.10
2018-07-10T10:09:19.110Z,8.33
2018-07-10T10:11:55.489Z,6.50
2018-07-10T10:14:30.865Z,5.83
2018-07-10T10:16:59.618Z,5.70
2018-07-10T10:19:30.362Z,5.87
2018-07-10T10:21:59.117Z,5.60
2018-07-10T10:24:31.442Z,5.83
2018-07-10T10:27:01.487Z,5.43
2018-07-10T10:29:30.221Z,5.60
2018-07-10T10:31:58.951Z,5.60
2018-07-10T10:34:27.729Z,6.60
2018-07-10T10:37:09.162Z,5.47
2018-07-10T10:39:58.165Z,5.67
2018-07-10T10:42:27.473Z,4.17
2018-07-10T10:45:04.350Z,5.60
2018-07-10T10:47:34.346Z,5.03
2018-07-10T10:50:10.068Z,5.43
2018-07-10T10:52:39.805Z,4.60
2018-07-10T10:55:08.551Z,5.50
2018-07-10T10:57:39.741Z,4.67
2018-07-10T11:00:20.396Z,5.73
2018-07-10T11:03:07.160Z,4.90
2018-07-10T11:05:40.461Z,5.50
2018-07-10T11:08:18.065Z,5.17
2018-07-10T11:10:49.018Z,5.47
2018-07-10T11:13:23.509Z,7.20
2018-07-10T11:15:52.239Z,4.97
2018-07-10T11:18:38.837Z,4.77
2018-07-10T11:21:28.494Z,5.13
2018-07-10T11:24:04.665Z,6.30
2018-07-10T11:26:48.146Z,6.33
2018-07-10T11:29:27.505Z,5.40
2018-07-10T11:32:01.074Z,6.30
2018-07-10T11:34:29.837Z,6.30
2018-07-10T11:36:58.653Z,6.20
2018-07-10T11:39:31.026Z,7.17
2018-07-10T11:42:05.714Z,7.17
2018-07-10T11:44:38.709Z,7.23
2018-07-10T11:47:15.266Z,7.70
2018-07-10T11:49:48.863Z,8.70
2018-07-10T11:52:29.061Z,8.13
2018-07-10T11:55:03.966Z,7.40
2018-07-10T11:57:37.655Z,7.90
2018-07-10T12:00:13.917Z,6.87
2018-07-10T12:02:46.981Z,8.10
2018-07-10T12:05:21.018Z,8.23
2018-07-10T12:07:58.518Z,8.60
2018-07-10T12:10:29.613Z,8.20
2018-07-10T12:13:09.369Z,9.53
2018-07-10T12:15:42.242Z,9.30
2018-07-10T12:18:16.590Z,8.80
2018-07-10T12:20:45.483Z,9.10
2018-07-10T12:23:27.918Z,9.20
2018-07-10T12:26:00.365Z,10.97
2018-07-10T12:28:30.121Z,8.60
2018-07-10T12:31:03.297Z,7.63
2018-07-10T12:33:48.850Z,8.83
2018-07-10T12:36:25.337Z,11.03
2018-07-10T12:39:10.706Z,9.80
2018-07-10T12:41:57.567Z,9.67
2018-07-10T12:44:30.526Z,9.10
2018-07-10T12:47:06.966Z,9.63
2018-07-10T12:49:49.253Z,10.33
2018-07-10T12:52:18.121Z,9.87
2018-07-10T12:54:58.749Z,11.33
2018-07-10T12:57:33.049Z,9.00
2018-07-10T13:00:07.497Z,8.63
2018-07-10T13:05:34.309Z,9.90
2018-07-10T13:08:05.130Z,8.00
2018-07-10T13:10:33.991Z,7.90
2018-07-10T13:13:04.866Z,8.63
2018-07-10T13:15:34.622Z,8.30
2018-07-10T13:18:07.833Z,8.60
2018-07-10T13:20:39.726Z,8.33
2018-07-10T13:23:08.582Z,8.37
2018-07-10T13:25:50.742Z,7.83
2018-07-10T13:28:20.489Z,7.40
2018-07-10T13:30:50.759Z,7.77
2018-07-10T13:33:21.570Z,7.77
2018-07-10T13:35:57.243Z,7.63
2018-07-10T13:38:26.926Z,8.83
2018-07-10T13:40:58.906Z,7.73
2018-07-10T13:43:34.470Z,7.83
2018-07-10T13:46:04.235Z,12.40
2018-07-10T13:48:33.978Z,9.93
2018-07-10T13:51:06.499Z,8.10
2018-07-10T13:56:29.478Z,7.80
2018-07-10T13:58:59.390Z,9.27
2018-07-10T14:01:29.118Z,8.30
2018-07-10T14:04:05.741Z,8.70
2018-07-10T14:06:34.602Z,7.67
2018-07-10T14:09:04.538Z,7.63
2018-07-10T14:11:33.606Z,7.87
2018-07-10T14:14:06.951Z,7.73
2018-07-10T14:16:41.133Z,7.70
2018-07-10T14:19:17.550Z,6.57
2018-07-10T14:24:42.046Z,9.40
2018-07-10T14:27:10.701Z,8.60
2018-07-10T14:32:32.918Z,8.30
2018-07-10T14:35:26.658Z,5.40
2018-07-10T14:37:59.558Z,4.30
2018-07-10T14:40:30.678Z,3.63
2018-07-10T14:43:04.763Z,3.67
2018-07-10T14:45:33.861Z,3.67
2018-07-10T14:48:05.534Z,3.83
2018-07-10T14:50:40.088Z,5.20
2018-07-10T14:53:18.645Z,3.97
2018-07-10T14:55:53.169Z,6.37
2018-07-10T14:58:23.030Z,5.73
2018-07-10T15:00:52.749Z,3.97
2018-07-10T15:03:33.873Z,4.10
2018-07-10T15:06:14.318Z,4.03
2018-07-10T15:08:43.173Z,6.30
2018-07-10T15:11:18.353Z,4.23
2018-07-10T15:13:56.893Z,5.40
2018-07-10T15:16:34.813Z,3.50
2018-07-10T15:19:26.472Z,3.67
2018-07-10T15:22:05.589Z,3.70
2018-07-10T15:24:37.857Z,9.40
2018-07-10T15:27:07.641Z,6.13
2018-07-10T15:29:36.445Z,7.10
2018-07-10T15:32:13.817Z,5.03
2018-07-10T15:34:48.906Z,5.20
2018-07-10T15:37:18.752Z,3.87
2018-07-10T15:39:52.296Z,4.40
2018-07-10T15:42:28.555Z,3.87
2018-07-10T15:44:57.304Z,4.03
2018-07-10T15:47:28.060Z,5.83
2018-07-10T15:50:00.169Z,3.90
2018-07-10T15:52:28.909Z,6.40
2018-07-10T15:55:16.890Z,3.70
2018-07-10T15:57:46.662Z,6.20
2018-07-10T16:00:16.508Z,5.00
2018-07-10T16:02:54.684Z,5.07
2018-07-10T16:05:27.504Z,4.83
2018-07-10T16:08:10.412Z,5.13
2018-07-10T16:10:46.024Z,5.10
2018-07-10T16:13:28.652Z,4.27
2018-07-10T16:15:59.480Z,8.50
2018-07-10T16:18:29.560Z,4.57
2018-07-10T16:21:11.036Z,6.17
2018-07-10T16:23:44.882Z,4.80
2018-07-10T16:26:22.658Z,10.10
2018-07-10T16:28:56.320Z,5.30
2018-07-10T16:31:25.187Z,6.23
2018-07-10T16:34:01.496Z,4.33
2018-07-10T16:36:30.236Z,5.77
2018-07-10T16:38:58.980Z,4.30
2018-07-10T16:41:33.232Z,9.17
2018-07-10T16:44:04.676Z,6.40
2018-07-10T16:46:33.741Z,3.40
2018-07-10T16:49:10.096Z,4.70
2018-07-10T16:53:55.585Z,4.37
2018-07-10T16:56:24.456Z,4.50
2018-07-10T16:58:54.384Z,5.00
2018-07-10T17:01:24.420Z,3.93
2018-07-10T17:04:00.680Z,4.87
2018-07-10T17:06:31.412Z,3.63
2018-07-10T17:09:00.220Z,4.60
2018-07-10T17:11:29.020Z,3.73
2018-07-10T17:14:02.137Z,5.97
2018-07-10T17:19:26.038Z,10.03
2018-07-10T17:21:55.806Z,5.67
2018-07-10T17:24:24.488Z,4.73
2018-07-10T17:26:53.312Z,7.00
2018-07-10T17:29:22.108Z,5.77
2018-07-10T17:31:50.964Z,4.80
2018-07-10T17:34:26.364Z,5.20
2018-07-10T17:36:55.256Z,4.23
2018-07-10T17:39:28.932Z,5.00
2018-07-10T17:42:00.884Z,3.60
2018-07-10T17:44:33.935Z,6.67
2018-07-10T17:47:06.924Z,3.70
2018-07-10T17:49:39.904Z,3.87
2018-07-10T17:52:09.756Z,4.13
2018-07-10T17:54:39.549Z,4.40
2018-07-10T17:57:09.312Z,4.27
2018-07-10T17:59:38.120Z,4.73
2018-07-10T18:02:09.116Z,3.73
2018-07-10T18:04:37.975Z,11.20
2018-07-10T18:07:06.752Z,3.10
2018-07-10T18:09:46.008Z,3.60
2018-07-10T18:12:18.484Z,4.13
2018-07-10T18:14:56.826Z,8.60
2018-07-10T18:17:25.739Z,3.70
2018-07-10T18:19:54.624Z,5.50
2018-07-10T18:22:24.380Z,4.97
2018-07-10T18:24:53.203Z,5.83
2018-07-10T18:27:25.164Z,4.70
2018-07-10T18:29:54.964Z,6.40
2018-07-10T18:32:25.820Z,4.27
2018-07-10T18:34:54.596Z,4.97
2018-07-10T18:37:27.376Z,6.03
2018-07-10T18:39:56.115Z,7.43
2018-07-10T18:42:26.026Z,5.67
2018-07-10T18:44:56.915Z,4.17
2018-07-10T18:47:25.436Z,5.57
2018-07-10T18:49:55.459Z,4.60
2018-07-10T18:52:33.404Z,5.20
2018-07-10T18:55:02.560Z,4.37
2018-07-10T19:00:07.252Z,7.93
2018-07-10T19:02:55.968Z,4.80
2018-07-10T19:05:27.788Z,4.60
2018-07-10T19:07:56.536Z,5.13
2018-07-10T19:10:27.463Z,4.87
2018-07-10T19:12:56.144Z,6.00
2018-07-10T19:15:36.968Z,5.43
2018-07-10T19:18:11.440Z,5.93
2018-07-10T19:20:47.899Z,5.50
2018-07-10T19:23:26.119Z,5.70
2018-07-10T19:25:55.128Z,5.53
2018-07-10T19:28:29.071Z,8.00
2018-07-10T19:31:13.028Z,6.80
2018-07-10T19:33:42.728Z,7.40
2018-07-10T19:36:15.072Z,6.30
2018-07-10T19:38:43.903Z,5.50
2018-07-10T19:41:16.272Z,6.90
2018-07-10T19:43:45.036Z,6.73
2018-07-10T19:46:19.380Z,6.40
2018-07-10T19:48:50.298Z,10.17
2018-07-10T19:51:25.620Z,8.07
2018-07-10T19:54:14.853Z,6.00
2018-07-10T19:56:55.456Z,10.43
2018-07-10T19:59:27.940Z,8.63
2018-07-10T20:02:01.048Z,6.30
2018-07-10T20:05:03.522Z,6.30
2018-07-10T20:07:37.544Z,10.80
2018-07-10T20:10:24.995Z,8.90
2018-07-10T20:13:00.680Z,12.30
2018-07-10T20:15:31.636Z,9.30
2018-07-10T20:19:15.861Z,6.53
2018-07-10T20:22:23.964Z,9.63
2018-07-10T20:24:58.543Z,7.13
2018-07-10T20:27:36.228Z,8.30
2018-07-10T20:31:15.276Z,13.70
2018-07-10T20:34:02.348Z,6.23
2018-07-10T20:36:32.219Z,7.23
2018-07-10T20:39:04.772Z,9.47
2018-07-10T20:41:47.188Z,8.13
2018-07-10T20:44:21.985Z,8.33
2018-07-10T20:47:03.293Z,13.93
2018-07-10T20:49:53.160Z,21.17
2018-07-10T20:52:26.976Z,8.57
2018-07-10T20:55:00.083Z,7.23
2018-07-10T20:57:40.940Z,11.70
2018-07-10T21:00:13.109Z,9.45
2018-07-10T21:02:52.724Z,8.20
2018-07-10T21:05:24.900Z,10.90
2018-07-10T21:08:00.664Z,11.43
2018-07-10T21:10:41.332Z,9.15
2018-07-10T21:13:19.732Z,8.75
2018-07-10T21:16:02.060Z,7.20
2018-07-10T21:18:45.480Z,10.37
2018-07-10T21:21:23.824Z,7.40
2018-07-10T21:23:59.104Z,9.53
2018-07-10T21:27:39.876Z,10.13
2018-07-10T21:30:19.124Z,13.48
2018-07-10T21:33:02.184Z,7.70
2018-07-10T21:35:40.786Z,8.43
2018-07-10T21:38:16.564Z,9.70
2018-07-10T21:46:16.628Z,10.48
2018-07-10T21:49:00.676Z,13.00
2018-07-10T21:51:35.224Z,11.85
2018-07-10T21:54:05.028Z,10.18
2018-07-10T21:56:33.975Z,10.15
2018-07-10T21:59:03.745Z,9.13
2018-07-10T22:02:03.488Z,8.48
2018-07-10T22:04:37.074Z,10.63
2018-07-10T22:07:19.876Z,12.98
2018-07-10T22:09:51.652Z,9.95
2018-07-10T22:12:21.156Z,10.18
2018-07-10T22:14:49.987Z,14.25
2018-07-10T22:17:25.504Z,11.43
2018-07-10T22:19:55.494Z,11.05
2018-07-10T22:22:29.887Z,11.78
2018-07-10T22:25:03.687Z,10.32
2018-07-10T22:27:41.262Z,11.12
2018-07-10T22:30:19.299Z,9.50
2018-07-10T22:32:57.811Z,9.73
2018-07-10T22:35:36.247Z,11.12
2018-07-10T22:38:12.811Z,10.13
2018-07-10T22:40:45.263Z,9.68
2018-07-10T22:43:16.119Z,11.10
2018-07-10T22:45:48.167Z,9.43
2018-07-10T22:48:26.859Z,10.28
2018-07-10T22:50:55.667Z,14.45
2018-07-10T22:53:24.555Z,8.18
2018-07-10T22:55:59.191Z,9.73
2018-07-10T22:58:28.123Z,9.93
2018-07-10T23:00:57.963Z,11.22
2018-07-10T23:03:26.820Z,11.50
2018-07-10T23:05:55.747Z,10.55
2018-07-10T23:08:27.768Z,10.72
2018-07-10T23:11:02.515Z,11.08
2018-07-10T23:13:45.451Z,10.98
2018-07-10T23:16:20.855Z,11.80
2018-07-10T23:19:08.779Z,11.33
2018-07-10T23:21:39.449Z,11.20
2018-07-10T23:24:10.511Z,11.38
2018-07-10T23:26:45.951Z,13.58
2018-07-10T23:29:14.467Z,10.50
2018-07-10T23:31:50.783Z,12.93
2018-07-10T23:34:23.211Z,18.10
2018-07-10T23:36:57.299Z,10.10
2018-07-10T23:39:33.991Z,9.45
2018-07-10T23:42:10.211Z,10.43
2018-07-10T23:44:50.750Z,10.50
2018-07-10T23:47:29.107Z,10.75
2018-07-10T23:50:01.838Z,10.60
2018-07-10T23:52:44.947Z,11.95
2018-07-10T23:55:16.887Z,11.40
2018-07-10T23:57:48.027Z,11.60
